sensor_id;sensor_type;location;lat;lon;timestamp;P1;durP1;ratioP1;P2;durP2;ratioP2
18102;SDS011;9178;51.120;6.192;2022-09-03T00:02:27;4.17;;;1.30;;
18102;SDS011;9178;51.120;6.192;2022-09-03T00:05:04;7.17;;;1.60;;
18102;SDS011;9178;51.120;6.192;2022-09-03T00:07:38;5.50;;;1.70;;
18102;SDS011;9178;51.120;6.192;2022-09-03T00:10:10;6.47;;;1.80;;
18102;SDS011;9178;51.120;6.192;2022-09-03T00:12:41;9.00;;;1.93;;
18102;SDS011;9178;51.120;6.192;2022-09-03T00:15:11;7.87;;;2.00;;
18102;SDS011;9178;51.120;6.192;2022-09-03T00:17:41;4.13;;;1.70;;
18102;SDS011;9178;51.120;6.192;2022-09-03T00:20:14;10.37;;;1.93;;
18102;SDS011;9178;51.120;6.192;2022-09-03T00:22:45;9.30;;;1.70;;
18102;SDS011;9178;51.120;6.192;2022-09-03T00:25:16;4.27;;;1.90;;
18102;SDS011;9178;51.120;6.192;2022-09-03T00:27:47;7.03;;;1.47;;
18102;SDS011;9178;51.120;6.192;2022-09-03T00:30:19;3.70;;;1.30;;
18102;SDS011;9178;51.120;6.192;2022-09-03T00:32:49;7.27;;;1.90;;
18102;SDS011;9178;51.120;6.192;2022-09-03T00:35:21;4.00;;;1.67;;
18102;SDS011;9178;51.120;6.192;2022-09-03T00:37:51;6.43;;;1.50;;
18102;SDS011;9178;51.120;6.192;2022-09-03T00:40:31;2.97;;;1.30;;
18102;SDS011;9178;51.120;6.192;2022-09-03T00:43:10;7.23;;;1.63;;
18102;SDS011;9178;51.120;6.192;2022-09-03T00:45:50;5.13;;;1.53;;
18102;SDS011;9178;51.120;6.192;2022-09-03T00:48:28;5.00;;;1.53;;
18102;SDS011;9178;51.120;6.192;2022-09-03T00:51:05;6.87;;;1.60;;
18102;SDS011;9178;51.120;6.192;2022-09-03T00:53:42;5.10;;;1.50;;
18102;SDS011;9178;51.120;6.192;2022-09-03T00:56:19;4.70;;;1.40;;
18102;SDS011;9178;51.120;6.192;2022-09-03T00:58:54;5.97;;;1.47;;
18102;SDS011;9178;51.120;6.192;2022-09-03T01:01:34;3.63;;;1.40;;
18102;SDS011;9178;51.120;6.192;2022-09-03T01:04:09;6.60;;;1.67;;
18102;SDS011;9178;51.120;6.192;2022-09-03T01:06:49;5.23;;;1.47;;
18102;SDS011;9178;51.120;6.192;2022-09-03T01:09:26;2.90;;;1.20;;
18102;SDS011;9178;51.120;6.192;2022-09-03T01:12:03;4.13;;;1.40;;
18102;SDS011;9178;51.120;6.192;2022-09-03T01:14:42;5.70;;;1.40;;
18102;SDS011;9178;51.120;6.192;2022-09-03T01:17:33;5.40;;;1.50;;
18102;SDS011;9178;51.120;6.192;2022-09-03T01:20:12;8.27;;;1.67;;
18102;SDS011;9178;51.120;6.192;2022-09-03T01:25:56;5.70;;;1.20;;
18102;SDS011;9178;51.120;6.192;2022-09-03T01:28:43;5.93;;;1.20;;
18102;SDS011;9178;51.120;6.192;2022-09-03T01:31:22;2.53;;;1.03;;
18102;SDS011;9178;51.120;6.192;2022-09-03T01:33:55;6.33;;;1.37;;
18102;SDS011;9178;51.120;6.192;2022-09-03T01:36:32;5.00;;;1.60;;
18102;SDS011;9178;51.120;6.192;2022-09-03T01:39:05;4.87;;;1.40;;
18102;SDS011;9178;51.120;6.192;2022-09-03T01:41:40;4.80;;;1.20;;
18102;SDS011;9178;51.120;6.192;2022-09-03T01:44:39;4.17;;;1.23;;
18102;SDS011;9178;51.120;6.192;2022-09-03T01:47:16;5.30;;;1.53;;
18102;SDS011;9178;51.120;6.192;2022-09-03T01:49:59;5.10;;;1.33;;
18102;SDS011;9178;51.120;6.192;2022-09-03T01:52:35;8.33;;;1.57;;
18102;SDS011;9178;51.120;6.192;2022-09-03T01:55:11;9.60;;;1.37;;
18102;SDS011;9178;51.120;6.192;2022-09-03T01:57:50;5.30;;;1.37;;
18102;SDS011;9178;51.120;6.192;2022-09-03T02:00:23;7.07;;;1.63;;
18102;SDS011;9178;51.120;6.192;2022-09-03T02:02:52;1.53;;;1.20;;
18102;SDS011;9178;51.120;6.192;2022-09-03T02:05:20;2.80;;;1.50;;
18102;SDS011;9178;51.120;6.192;2022-09-03T02:07:49;5.50;;;1.40;;
18102;SDS011;9178;51.120;6.192;2022-09-03T02:10:20;3.10;;;1.13;;
18102;SDS011;9178;51.120;6.192;2022-09-03T02:12:52;7.00;;;1.50;;
18102;SDS011;9178;51.120;6.192;2022-09-03T02:15:24;4.57;;;1.20;;
18102;SDS011;9178;51.120;6.192;2022-09-03T02:17:52;5.63;;;1.33;;
18102;SDS011;9178;51.120;6.192;2022-09-03T02:20:26;6.37;;;1.23;;
18102;SDS011;9178;51.120;6.192;2022-09-03T02:22:55;5.17;;;1.30;;
18102;SDS011;9178;51.120;6.192;2022-09-03T02:25:27;8.40;;;1.50;;
18102;SDS011;9178;51.120;6.192;2022-09-03T02:27:57;5.17;;;1.40;;
18102;SDS011;9178;51.120;6.192;2022-09-03T02:30:26;4.80;;;1.40;;
18102;SDS011;9178;51.120;6.192;2022-09-03T02:32:53;5.63;;;1.37;;
18102;SDS011;9178;51.120;6.192;2022-09-03T02:35:20;7.43;;;1.20;;
18102;SDS011;9178;51.120;6.192;2022-09-03T02:37:47;3.43;;;1.20;;
18102;SDS011;9178;51.120;6.192;2022-09-03T02:40:14;5.17;;;1.30;;
18102;SDS011;9178;51.120;6.192;2022-09-03T02:42:41;7.07;;;1.40;;
18102;SDS011;9178;51.120;6.192;2022-09-03T02:45:10;3.33;;;1.17;;
18102;SDS011;9178;51.120;6.192;2022-09-03T02:47:48;4.43;;;1.00;;
18102;SDS011;9178;51.120;6.192;2022-09-03T02:50:17;7.23;;;1.20;;
18102;SDS011;9178;51.120;6.192;2022-09-03T02:52:44;6.63;;;1.20;;
18102;SDS011;9178;51.120;6.192;2022-09-03T02:55:10;6.07;;;1.10;;
18102;SDS011;9178;51.120;6.192;2022-09-03T02:57:37;7.40;;;1.30;;
18102;SDS011;9178;51.120;6.192;2022-09-03T03:00:04;7.63;;;1.40;;
18102;SDS011;9178;51.120;6.192;2022-09-03T03:02:32;6.93;;;1.30;;
18102;SDS011;9178;51.120;6.192;2022-09-03T03:05:00;4.60;;;1.20;;
18102;SDS011;9178;51.120;6.192;2022-09-03T03:07:28;5.47;;;1.10;;
18102;SDS011;9178;51.120;6.192;2022-09-03T03:09:59;5.63;;;1.20;;
18102;SDS011;9178;51.120;6.192;2022-09-03T03:12:26;4.53;;;1.37;;
18102;SDS011;9178;51.120;6.192;2022-09-03T03:14:54;3.37;;;1.10;;
18102;SDS011;9178;51.120;6.192;2022-09-03T03:17:20;3.67;;;1.27;;
18102;SDS011;9178;51.120;6.192;2022-09-03T03:19:47;1.73;;;1.00;;
18102;SDS011;9178;51.120;6.192;2022-09-03T03:22:15;3.93;;;1.20;;
18102;SDS011;9178;51.120;6.192;2022-09-03T03:24:42;2.57;;;1.30;;
18102;SDS011;9178;51.120;6.192;2022-09-03T03:27:09;6.20;;;1.00;;
18102;SDS011;9178;51.120;6.192;2022-09-03T03:29:37;4.03;;;1.07;;
18102;SDS011;9178;51.120;6.192;2022-09-03T03:32:04;3.00;;;0.83;;
18102;SDS011;9178;51.120;6.192;2022-09-03T03:34:31;2.40;;;1.03;;
18102;SDS011;9178;51.120;6.192;2022-09-03T03:36:57;2.87;;;1.13;;
18102;SDS011;9178;51.120;6.192;2022-09-03T03:39:26;6.80;;;1.10;;
18102;SDS011;9178;51.120;6.192;2022-09-03T03:41:52;1.77;;;0.90;;
18102;SDS011;9178;51.120;6.192;2022-09-03T03:44:21;2.13;;;1.13;;
18102;SDS011;9178;51.120;6.192;2022-09-03T03:46:47;1.63;;;0.90;;
18102;SDS011;9178;51.120;6.192;2022-09-03T03:49:14;1.50;;;0.93;;
18102;SDS011;9178;51.120;6.192;2022-09-03T03:51:41;2.30;;;1.10;;
18102;SDS011;9178;51.120;6.192;2022-09-03T03:54:09;4.97;;;1.20;;
18102;SDS011;9178;51.120;6.192;2022-09-03T03:56:38;4.37;;;1.13;;
18102;SDS011;9178;51.120;6.192;2022-09-03T03:59:04;3.50;;;1.00;;
18102;SDS011;9178;51.120;6.192;2022-09-03T04:01:31;3.40;;;0.77;;
18102;SDS011;9178;51.120;6.192;2022-09-03T04:03:58;2.83;;;1.13;;
18102;SDS011;9178;51.120;6.192;2022-09-03T04:06:25;2.60;;;1.37;;
18102;SDS011;9178;51.120;6.192;2022-09-03T04:08:52;4.53;;;1.07;;
18102;SDS011;9178;51.120;6.192;2022-09-03T04:11:20;3.40;;;1.00;;
18102;SDS011;9178;51.120;6.192;2022-09-03T04:13:50;5.37;;;1.10;;
18102;SDS011;9178;51.120;6.192;2022-09-03T04:16:18;3.77;;;1.07;;
18102;SDS011;9178;51.120;6.192;2022-09-03T04:18:47;4.70;;;1.40;;
18102;SDS011;9178;51.120;6.192;2022-09-03T04:21:16;3.60;;;1.00;;
18102;SDS011;9178;51.120;6.192;2022-09-03T04:23:45;4.13;;;1.30;;
18102;SDS011;9178;51.120;6.192;2022-09-03T04:26:14;2.53;;;1.00;;
18102;SDS011;9178;51.120;6.192;2022-09-03T04:28:43;2.47;;;1.10;;
18102;SDS011;9178;51.120;6.192;2022-09-03T04:31:11;4.40;;;1.00;;
18102;SDS011;9178;51.120;6.192;2022-09-03T04:33:40;5.37;;;1.07;;
18102;SDS011;9178;51.120;6.192;2022-09-03T04:36:09;4.70;;;1.37;;
18102;SDS011;9178;51.120;6.192;2022-09-03T04:38:38;5.07;;;1.27;;
18102;SDS011;9178;51.120;6.192;2022-09-03T04:41:07;5.13;;;1.50;;
18102;SDS011;9178;51.120;6.192;2022-09-03T04:43:35;2.00;;;1.00;;
18102;SDS011;9178;51.120;6.192;2022-09-03T04:46:04;4.07;;;1.00;;
18102;SDS011;9178;51.120;6.192;2022-09-03T04:48:33;4.77;;;1.23;;
18102;SDS011;9178;51.120;6.192;2022-09-03T04:51:02;3.87;;;1.30;;
18102;SDS011;9178;51.120;6.192;2022-09-03T04:53:30;5.13;;;1.30;;
18102;SDS011;9178;51.120;6.192;2022-09-03T04:55:58;3.33;;;1.10;;
18102;SDS011;9178;51.120;6.192;2022-09-03T04:58:25;2.03;;;1.10;;
18102;SDS011;9178;51.120;6.192;2022-09-03T05:00:52;1.83;;;1.10;;
18102;SDS011;9178;51.120;6.192;2022-09-03T05:03:19;3.47;;;1.13;;
18102;SDS011;9178;51.120;6.192;2022-09-03T05:05:54;4.40;;;1.00;;
18102;SDS011;9178;51.120;6.192;2022-09-03T05:08:21;2.40;;;0.90;;
18102;SDS011;9178;51.120;6.192;2022-09-03T05:10:49;4.37;;;1.40;;
18102;SDS011;9178;51.120;6.192;2022-09-03T05:13:23;4.63;;;1.10;;
18102;SDS011;9178;51.120;6.192;2022-09-03T05:15:50;3.50;;;0.93;;
18102;SDS011;9178;51.120;6.192;2022-09-03T05:18:17;3.33;;;0.93;;
18102;SDS011;9178;51.120;6.192;2022-09-03T05:20:45;3.27;;;0.87;;
18102;SDS011;9178;51.120;6.192;2022-09-03T05:23:13;2.07;;;0.90;;
18102;SDS011;9178;51.120;6.192;2022-09-03T05:25:40;1.97;;;1.07;;
18102;SDS011;9178;51.120;6.192;2022-09-03T05:28:07;2.97;;;1.17;;
18102;SDS011;9178;51.120;6.192;2022-09-03T05:30:35;5.27;;;1.30;;
18102;SDS011;9178;51.120;6.192;2022-09-03T05:33:02;2.20;;;1.10;;
18102;SDS011;9178;51.120;6.192;2022-09-03T05:35:30;3.77;;;1.00;;
18102;SDS011;9178;51.120;6.192;2022-09-03T05:37:56;5.40;;;1.00;;
18102;SDS011;9178;51.120;6.192;2022-09-03T05:40:26;1.20;;;0.90;;
18102;SDS011;9178;51.120;6.192;2022-09-03T05:42:54;4.00;;;1.03;;
18102;SDS011;9178;51.120;6.192;2022-09-03T05:45:23;1.63;;;0.70;;
18102;SDS011;9178;51.120;6.192;2022-09-03T05:47:49;3.20;;;1.00;;
18102;SDS011;9178;51.120;6.192;2022-09-03T05:50:16;1.90;;;0.90;;
18102;SDS011;9178;51.120;6.192;2022-09-03T05:52:43;2.13;;;1.07;;
18102;SDS011;9178;51.120;6.192;2022-09-03T05:55:10;1.90;;;1.30;;
18102;SDS011;9178;51.120;6.192;2022-09-03T05:57:38;2.60;;;0.90;;
18102;SDS011;9178;51.120;6.192;2022-09-03T06:00:05;5.97;;;1.10;;
18102;SDS011;9178;51.120;6.192;2022-09-03T06:02:33;3.80;;;1.00;;
18102;SDS011;9178;51.120;6.192;2022-09-03T06:05:00;4.13;;;0.80;;
18102;SDS011;9178;51.120;6.192;2022-09-03T06:07:27;2.50;;;1.00;;
18102;SDS011;9178;51.120;6.192;2022-09-03T06:09:53;3.80;;;0.90;;
18102;SDS011;9178;51.120;6.192;2022-09-03T06:12:20;1.23;;;0.90;;
18102;SDS011;9178;51.120;6.192;2022-09-03T06:14:48;3.50;;;0.80;;
18102;SDS011;9178;51.120;6.192;2022-09-03T06:17:15;5.33;;;1.00;;
18102;SDS011;9178;51.120;6.192;2022-09-03T06:19:42;5.00;;;1.03;;
18102;SDS011;9178;51.120;6.192;2022-09-03T06:22:09;3.13;;;1.00;;
18102;SDS011;9178;51.120;6.192;2022-09-03T06:24:36;3.93;;;0.90;;
18102;SDS011;9178;51.120;6.192;2022-09-03T06:27:03;5.23;;;0.97;;
18102;SDS011;9178;51.120;6.192;2022-09-03T06:29:30;3.97;;;0.90;;
18102;SDS011;9178;51.120;6.192;2022-09-03T06:31:59;3.83;;;1.10;;
18102;SDS011;9178;51.120;6.192;2022-09-03T06:34:26;3.90;;;0.93;;
18102;SDS011;9178;51.120;6.192;2022-09-03T06:36:53;5.57;;;0.90;;
18102;SDS011;9178;51.120;6.192;2022-09-03T06:39:20;2.40;;;0.80;;
18102;SDS011;9178;51.120;6.192;2022-09-03T06:41:47;3.45;;;0.88;;
18102;SDS011;9178;51.120;6.192;2022-09-03T06:44:15;3.90;;;1.15;;
18102;SDS011;9178;51.120;6.192;2022-09-03T06:46:43;2.77;;;1.13;;
18102;SDS011;9178;51.120;6.192;2022-09-03T06:49:12;2.88;;;0.93;;
18102;SDS011;9178;51.120;6.192;2022-09-03T06:51:39;3.55;;;1.10;;
18102;SDS011;9178;51.120;6.192;2022-09-03T06:54:07;1.77;;;0.80;;
18102;SDS011;9178;51.120;6.192;2022-09-03T06:56:36;3.50;;;1.30;;
18102;SDS011;9178;51.120;6.192;2022-09-03T06:59:05;1.45;;;0.80;;
18102;SDS011;9178;51.120;6.192;2022-09-03T07:01:33;4.78;;;0.90;;
18102;SDS011;9178;51.120;6.192;2022-09-03T07:04:00;3.40;;;0.88;;
18102;SDS011;9178;51.120;6.192;2022-09-03T07:06:30;4.22;;;0.88;;
18102;SDS011;9178;51.120;6.192;2022-09-03T07:08:58;1.95;;;0.90;;
18102;SDS011;9178;51.120;6.192;2022-09-03T07:11:25;3.38;;;1.17;;
18102;SDS011;9178;51.120;6.192;2022-09-03T07:13:56;4.45;;;0.70;;
18102;SDS011;9178;51.120;6.192;2022-09-03T07:16:24;2.97;;;0.85;;
18102;SDS011;9178;51.120;6.192;2022-09-03T07:18:51;2.65;;;1.00;;
18102;SDS011;9178;51.120;6.192;2022-09-03T07:21:20;1.38;;;0.82;;
18102;SDS011;9178;51.120;6.192;2022-09-03T07:23:49;1.58;;;0.85;;
18102;SDS011;9178;51.120;6.192;2022-09-03T07:26:18;2.67;;;0.80;;
18102;SDS011;9178;51.120;6.192;2022-09-03T07:28:47;2.42;;;0.80;;
18102;SDS011;9178;51.120;6.192;2022-09-03T07:31:14;4.32;;;0.70;;
18102;SDS011;9178;51.120;6.192;2022-09-03T07:33:43;1.33;;;0.82;;
18102;SDS011;9178;51.120;6.192;2022-09-03T07:36:12;1.58;;;0.80;;
18102;SDS011;9178;51.120;6.192;2022-09-03T07:38:40;2.38;;;0.80;;
18102;SDS011;9178;51.120;6.192;2022-09-03T07:41:11;4.38;;;0.90;;
18102;SDS011;9178;51.120;6.192;2022-09-03T07:43:39;2.00;;;1.00;;
18102;SDS011;9178;51.120;6.192;2022-09-03T07:46:08;1.00;;;0.82;;
18102;SDS011;9178;51.120;6.192;2022-09-03T07:48:37;2.72;;;0.88;;
18102;SDS011;9178;51.120;6.192;2022-09-03T07:51:04;0.98;;;0.82;;
18102;SDS011;9178;51.120;6.192;2022-09-03T07:53:32;1.52;;;0.90;;
18102;SDS011;9178;51.120;6.192;2022-09-03T07:56:03;4.97;;;0.70;;
18102;SDS011;9178;51.120;6.192;2022-09-03T07:58:33;1.60;;;0.82;;
18102;SDS011;9178;51.120;6.192;2022-09-03T08:01:02;3.75;;;0.88;;
18102;SDS011;9178;51.120;6.192;2022-09-03T08:03:32;3.50;;;0.88;;
18102;SDS011;9178;51.120;6.192;2022-09-03T08:05:59;3.10;;;1.30;;
18102;SDS011;9178;51.120;6.192;2022-09-03T08:08:27;1.15;;;0.85;;
18102;SDS011;9178;51.120;6.192;2022-09-03T08:10:54;2.47;;;0.90;;
18102;SDS011;9178;51.120;6.192;2022-09-03T08:13:28;1.33;;;1.02;;
18102;SDS011;9178;51.120;6.192;2022-09-03T08:15:56;1.20;;;0.80;;
18102;SDS011;9178;51.120;6.192;2022-09-03T08:18:24;1.23;;;0.90;;
18102;SDS011;9178;51.120;6.192;2022-09-03T08:20:51;1.40;;;1.00;;
18102;SDS011;9178;51.120;6.192;2022-09-03T08:23:18;2.58;;;1.00;;
18102;SDS011;9178;51.120;6.192;2022-09-03T08:25:44;3.60;;;1.10;;
18102;SDS011;9178;51.120;6.192;2022-09-03T08:28:11;2.65;;;0.90;;
18102;SDS011;9178;51.120;6.192;2022-09-03T08:30:47;3.60;;;0.85;;
18102;SDS011;9178;51.120;6.192;2022-09-03T08:33:15;2.28;;;0.70;;
18102;SDS011;9178;51.120;6.192;2022-09-03T08:36:01;3.78;;;0.75;;
18102;SDS011;9178;51.120;6.192;2022-09-03T08:38:30;1.80;;;0.82;;
18102;SDS011;9178;51.120;6.192;2022-09-03T08:41:01;2.22;;;0.85;;
18102;SDS011;9178;51.120;6.192;2022-09-03T08:43:32;1.58;;;1.00;;
18102;SDS011;9178;51.120;6.192;2022-09-03T08:46:12;1.02;;;0.85;;
18102;SDS011;9178;51.120;6.192;2022-09-03T08:48:40;1.50;;;0.80;;
18102;SDS011;9178;51.120;6.192;2022-09-03T08:51:07;0.60;;;0.60;;
18102;SDS011;9178;51.120;6.192;2022-09-03T08:53:38;0.75;;;0.70;;
18102;SDS011;9178;51.120;6.192;2022-09-03T08:56:11;5.30;;;0.88;;
18102;SDS011;9178;51.120;6.192;2022-09-03T08:58:53;1.88;;;0.90;;
18102;SDS011;9178;51.120;6.192;2022-09-03T09:01:22;1.77;;;0.65;;
18102;SDS011;9178;51.120;6.192;2022-09-03T09:04:04;2.25;;;0.80;;
18102;SDS011;9178;51.120;6.192;2022-09-03T09:06:41;1.95;;;0.80;;
18102;SDS011;9178;51.120;6.192;2022-09-03T09:09:16;1.85;;;0.73;;
18102;SDS011;9178;51.120;6.192;2022-09-03T09:11:57;2.10;;;0.70;;
18102;SDS011;9178;51.120;6.192;2022-09-03T09:14:36;1.75;;;0.70;;
18102;SDS011;9178;51.120;6.192;2022-09-03T09:17:11;1.10;;;0.60;;
18102;SDS011;9178;51.120;6.192;2022-09-03T09:19:59;0.88;;;0.60;;
18102;SDS011;9178;51.120;6.192;2022-09-03T09:22:32;3.42;;;0.80;;
18102;SDS011;9178;51.120;6.192;2022-09-03T09:25:05;1.20;;;0.85;;
18102;SDS011;9178;51.120;6.192;2022-09-03T09:27:38;3.47;;;0.85;;
18102;SDS011;9178;51.120;6.192;2022-09-03T09:30:10;2.42;;;1.20;;
18102;SDS011;9178;51.120;6.192;2022-09-03T09:32:42;2.05;;;1.00;;
18102;SDS011;9178;51.120;6.192;2022-09-03T09:35:10;1.83;;;1.00;;
18102;SDS011;9178;51.120;6.192;2022-09-03T09:37:45;2.72;;;0.80;;
18102;SDS011;9178;51.120;6.192;2022-09-03T09:40:21;2.17;;;0.90;;
18102;SDS011;9178;51.120;6.192;2022-09-03T09:42:50;1.23;;;0.90;;
18102;SDS011;9178;51.120;6.192;2022-09-03T09:45:22;3.03;;;0.90;;
18102;SDS011;9178;51.120;6.192;2022-09-03T09:47:52;1.83;;;0.90;;
18102;SDS011;9178;51.120;6.192;2022-09-03T09:50:22;4.07;;;0.88;;
18102;SDS011;9178;51.120;6.192;2022-09-03T09:52:58;6.38;;;1.23;;
18102;SDS011;9178;51.120;6.192;2022-09-03T09:55:26;0.77;;;0.77;;
18102;SDS011;9178;51.120;6.192;2022-09-03T09:58:05;4.40;;;1.00;;
18102;SDS011;9178;51.120;6.192;2022-09-03T10:00:33;1.35;;;0.80;;
18102;SDS011;9178;51.120;6.192;2022-09-03T10:03:04;1.77;;;0.90;;
18102;SDS011;9178;51.120;6.192;2022-09-03T10:05:36;4.82;;;0.80;;
18102;SDS011;9178;51.120;6.192;2022-09-03T10:08:18;1.60;;;0.80;;
18102;SDS011;9178;51.120;6.192;2022-09-03T10:10:46;1.73;;;1.00;;
18102;SDS011;9178;51.120;6.192;2022-09-03T10:13:17;1.38;;;0.90;;
18102;SDS011;9178;51.120;6.192;2022-09-03T10:15:46;3.35;;;0.95;;
18102;SDS011;9178;51.120;6.192;2022-09-03T10:18:16;5.78;;;1.00;;
18102;SDS011;9178;51.120;6.192;2022-09-03T10:20:56;2.10;;;0.80;;
18102;SDS011;9178;51.120;6.192;2022-09-03T10:23:28;3.50;;;1.00;;
18102;SDS011;9178;51.120;6.192;2022-09-03T10:26:01;6.97;;;1.02;;
18102;SDS011;9178;51.120;6.192;2022-09-03T10:28:34;4.90;;;0.98;;
18102;SDS011;9178;51.120;6.192;2022-09-03T10:31:09;3.17;;;1.00;;
18102;SDS011;9178;51.120;6.192;2022-09-03T10:33:45;4.30;;;0.80;;
18102;SDS011;9178;51.120;6.192;2022-09-03T10:36:17;3.13;;;1.13;;
18102;SDS011;9178;51.120;6.192;2022-09-03T10:38:47;5.80;;;0.85;;
18102;SDS011;9178;51.120;6.192;2022-09-03T10:41:24;1.58;;;1.00;;
18102;SDS011;9178;51.120;6.192;2022-09-03T10:47:06;1.80;;;1.00;;
18102;SDS011;9178;51.120;6.192;2022-09-03T10:49:48;2.92;;;1.38;;
18102;SDS011;9178;51.120;6.192;2022-09-03T10:52:25;2.92;;;1.10;;
18102;SDS011;9178;51.120;6.192;2022-09-03T10:55:00;3.17;;;1.23;;
18102;SDS011;9178;51.120;6.192;2022-09-03T10:57:38;2.22;;;1.15;;
18102;SDS011;9178;51.120;6.192;2022-09-03T11:00:13;1.42;;;1.10;;
18102;SDS011;9178;51.120;6.192;2022-09-03T11:02:46;1.63;;;1.00;;
18102;SDS011;9178;51.120;6.192;2022-09-03T11:05:47;5.60;;;1.40;;
18102;SDS011;9178;51.120;6.192;2022-09-03T11:08:24;3.92;;;1.08;;
18102;SDS011;9178;51.120;6.192;2022-09-03T11:10:55;3.45;;;1.00;;
18102;SDS011;9178;51.120;6.192;2022-09-03T11:13:31;2.85;;;1.08;;
18102;SDS011;9178;51.120;6.192;2022-09-03T11:16:02;1.77;;;0.95;;
18102;SDS011;9178;51.120;6.192;2022-09-03T11:18:37;2.00;;;1.23;;
18102;SDS011;9178;51.120;6.192;2022-09-03T11:21:09;2.90;;;1.10;;
18102;SDS011;9178;51.120;6.192;2022-09-03T11:23:41;2.67;;;1.30;;
18102;SDS011;9178;51.120;6.192;2022-09-03T11:26:10;1.95;;;1.08;;
18102;SDS011;9178;51.120;6.192;2022-09-03T11:28:42;2.70;;;1.15;;
18102;SDS011;9178;51.120;6.192;2022-09-03T11:31:22;2.55;;;1.17;;
18102;SDS011;9178;51.120;6.192;2022-09-03T11:33:57;6.40;;;1.10;;
18102;SDS011;9178;51.120;6.192;2022-09-03T11:36:31;3.42;;;1.10;;
18102;SDS011;9178;51.120;6.192;2022-09-03T11:39:01;7.00;;;1.33;;
18102;SDS011;9178;51.120;6.192;2022-09-03T11:41:40;2.65;;;1.13;;
18102;SDS011;9178;51.120;6.192;2022-09-03T11:44:11;2.08;;;1.10;;
18102;SDS011;9178;51.120;6.192;2022-09-03T11:46:51;3.72;;;1.25;;
18102;SDS011;9178;51.120;6.192;2022-09-03T11:49:24;3.80;;;1.25;;
18102;SDS011;9178;51.120;6.192;2022-09-03T11:51:58;2.00;;;1.00;;
18102;SDS011;9178;51.120;6.192;2022-09-03T11:54:30;1.70;;;0.90;;
18102;SDS011;9178;51.120;6.192;2022-09-03T11:57:09;1.40;;;1.00;;
18102;SDS011;9178;51.120;6.192;2022-09-03T11:59:39;2.22;;;1.33;;
18102;SDS011;9178;51.120;6.192;2022-09-03T12:02:23;1.27;;;1.00;;
18102;SDS011;9178;51.120;6.192;2022-09-03T12:04:56;1.45;;;1.35;;
18102;SDS011;9178;51.120;6.192;2022-09-03T12:07:55;5.45;;;1.58;;
18102;SDS011;9178;51.120;6.192;2022-09-03T12:10:42;2.97;;;1.00;;
18102;SDS011;9178;51.120;6.192;2022-09-03T12:13:18;1.45;;;1.10;;
18102;SDS011;9178;51.120;6.192;2022-09-03T12:18:47;1.85;;;1.20;;
18102;SDS011;9178;51.120;6.192;2022-09-03T12:21:17;1.02;;;0.93;;
18102;SDS011;9178;51.120;6.192;2022-09-03T12:23:46;3.72;;;1.10;;
18102;SDS011;9178;51.120;6.192;2022-09-03T12:26:16;2.47;;;1.02;;
18102;SDS011;9178;51.120;6.192;2022-09-03T12:28:47;1.48;;;0.93;;
18102;SDS011;9178;51.120;6.192;2022-09-03T12:31:16;2.33;;;1.02;;
18102;SDS011;9178;51.120;6.192;2022-09-03T12:33:49;2.35;;;1.20;;
18102;SDS011;9178;51.120;6.192;2022-09-03T12:36:19;3.80;;;1.30;;
18102;SDS011;9178;51.120;6.192;2022-09-03T12:38:47;1.77;;;1.30;;
18102;SDS011;9178;51.120;6.192;2022-09-03T12:41:25;4.25;;;1.40;;
18102;SDS011;9178;51.120;6.192;2022-09-03T12:43:56;5.88;;;1.63;;
18102;SDS011;9178;51.120;6.192;2022-09-03T12:46:25;2.40;;;1.10;;
18102;SDS011;9178;51.120;6.192;2022-09-03T12:48:53;3.05;;;1.15;;
18102;SDS011;9178;51.120;6.192;2022-09-03T12:51:21;2.60;;;1.20;;
18102;SDS011;9178;51.120;6.192;2022-09-03T12:53:49;2.42;;;1.25;;
18102;SDS011;9178;51.120;6.192;2022-09-03T12:56:17;3.10;;;1.10;;
18102;SDS011;9178;51.120;6.192;2022-09-03T12:58:49;5.43;;;1.42;;
18102;SDS011;9178;51.120;6.192;2022-09-03T13:01:22;3.33;;;1.23;;
18102;SDS011;9178;51.120;6.192;2022-09-03T13:03:56;3.35;;;1.33;;
18102;SDS011;9178;51.120;6.192;2022-09-03T13:06:30;2.47;;;1.10;;
18102;SDS011;9178;51.120;6.192;2022-09-03T13:09:06;3.13;;;1.50;;
18102;SDS011;9178;51.120;6.192;2022-09-03T13:11:34;6.80;;;1.30;;
18102;SDS011;9178;51.120;6.192;2022-09-03T13:14:04;1.75;;;1.10;;
18102;SDS011;9178;51.120;6.192;2022-09-03T13:16:45;5.15;;;1.30;;
18102;SDS011;9178;51.120;6.192;2022-09-03T13:19:34;2.75;;;1.10;;
18102;SDS011;9178;51.120;6.192;2022-09-03T13:22:10;3.42;;;1.30;;
18102;SDS011;9178;51.120;6.192;2022-09-03T13:24:48;3.47;;;1.55;;
18102;SDS011;9178;51.120;6.192;2022-09-03T13:27:30;4.00;;;1.35;;
18102;SDS011;9178;51.120;6.192;2022-09-03T13:30:06;2.90;;;1.30;;
18102;SDS011;9178;51.120;6.192;2022-09-03T13:32:41;2.15;;;1.10;;
18102;SDS011;9178;51.120;6.192;2022-09-03T13:35:16;1.95;;;1.20;;
18102;SDS011;9178;51.120;6.192;2022-09-03T13:37:53;1.70;;;1.30;;
18102;SDS011;9178;51.120;6.192;2022-09-03T13:40:26;2.17;;;1.38;;
18102;SDS011;9178;51.120;6.192;2022-09-03T13:43:02;3.58;;;1.42;;
18102;SDS011;9178;51.120;6.192;2022-09-03T13:45:36;1.65;;;1.02;;
18102;SDS011;9178;51.120;6.192;2022-09-03T13:48:07;6.35;;;1.20;;
18102;SDS011;9178;51.120;6.192;2022-09-03T13:50:58;3.00;;;1.27;;
18102;SDS011;9178;51.120;6.192;2022-09-03T13:53:31;1.88;;;1.02;;
18102;SDS011;9178;51.120;6.192;2022-09-03T13:56:12;2.03;;;1.05;;
18102;SDS011;9178;51.120;6.192;2022-09-03T13:58:47;1.20;;;1.08;;
18102;SDS011;9178;51.120;6.192;2022-09-03T14:01:22;2.20;;;1.27;;
18102;SDS011;9178;51.120;6.192;2022-09-03T14:03:53;1.58;;;1.30;;
18102;SDS011;9178;51.120;6.192;2022-09-03T14:06:25;1.77;;;1.27;;
18102;SDS011;9178;51.120;6.192;2022-09-03T14:09:06;1.52;;;1.13;;
18102;SDS011;9178;51.120;6.192;2022-09-03T14:11:45;1.33;;;1.23;;
18102;SDS011;9178;51.120;6.192;2022-09-03T14:14:22;1.50;;;1.40;;
18102;SDS011;9178;51.120;6.192;2022-09-03T14:17:09;1.00;;;1.00;;
18102;SDS011;9178;51.120;6.192;2022-09-03T14:19:42;1.10;;;1.10;;
18102;SDS011;9178;51.120;6.192;2022-09-03T14:22:16;1.83;;;1.35;;
18102;SDS011;9178;51.120;6.192;2022-09-03T14:24:48;4.00;;;1.30;;
18102;SDS011;9178;51.120;6.192;2022-09-03T14:27:21;5.45;;;1.52;;
18102;SDS011;9178;51.120;6.192;2022-09-03T14:29:52;1.38;;;1.17;;
18102;SDS011;9178;51.120;6.192;2022-09-03T14:32:27;1.10;;;1.10;;
18102;SDS011;9178;51.120;6.192;2022-09-03T14:35:08;1.20;;;1.10;;
18102;SDS011;9178;51.120;6.192;2022-09-03T14:40:43;1.08;;;0.98;;
18102;SDS011;9178;51.120;6.192;2022-09-03T14:43:25;1.20;;;1.10;;
18102;SDS011;9178;51.120;6.192;2022-09-03T14:46:02;1.00;;;1.00;;
18102;SDS011;9178;51.120;6.192;2022-09-03T14:48:44;2.78;;;1.17;;
18102;SDS011;9178;51.120;6.192;2022-09-03T14:51:29;1.02;;;1.02;;
18102;SDS011;9178;51.120;6.192;2022-09-03T14:57:15;1.60;;;1.50;;
18102;SDS011;9178;51.120;6.192;2022-09-03T15:00:04;1.50;;;1.40;;
18102;SDS011;9178;51.120;6.192;2022-09-03T15:08:34;1.38;;;1.27;;
18102;SDS011;9178;51.120;6.192;2022-09-03T15:11:20;1.45;;;1.20;;
18102;SDS011;9178;51.120;6.192;2022-09-03T15:13:50;3.22;;;1.15;;
18102;SDS011;9178;51.120;6.192;2022-09-03T15:16:23;1.35;;;1.10;;
18102;SDS011;9178;51.120;6.192;2022-09-03T15:19:12;2.50;;;1.08;;
18102;SDS011;9178;51.120;6.192;2022-09-03T15:22:00;1.50;;;1.40;;
18102;SDS011;9178;51.120;6.192;2022-09-03T15:24:40;3.30;;;1.00;;
18102;SDS011;9178;51.120;6.192;2022-09-03T15:27:20;2.92;;;1.30;;
18102;SDS011;9178;51.120;6.192;2022-09-03T15:30:08;5.70;;;1.63;;
18102;SDS011;9178;51.120;6.192;2022-09-03T15:32:41;2.45;;;1.38;;
18102;SDS011;9178;51.120;6.192;2022-09-03T15:35:17;1.60;;;1.30;;
18102;SDS011;9178;51.120;6.192;2022-09-03T15:38:04;1.40;;;1.30;;
18102;SDS011;9178;51.120;6.192;2022-09-03T15:40:37;2.67;;;1.27;;
18102;SDS011;9178;51.120;6.192;2022-09-03T15:43:14;1.38;;;1.27;;
18102;SDS011;9178;51.120;6.192;2022-09-03T15:45:51;3.70;;;1.73;;
18102;SDS011;9178;51.120;6.192;2022-09-03T15:48:25;2.15;;;1.40;;
18102;SDS011;9178;51.120;6.192;2022-09-03T15:51:04;5.47;;;1.75;;
18102;SDS011;9178;51.120;6.192;2022-09-03T15:53:38;3.80;;;1.40;;